sensor_id;sensor_type;location;lat;lon;timestamp;P1;durP1;ratioP1;P2;durP2;ratioP2
63817;SDS011;53093;55.092;73.476;2022-09-09T00:02:22;10.52;;;5.80;;
63817;SDS011;53093;55.092;73.476;2022-09-09T00:05:04;10.27;;;6.50;;
63817;SDS011;53093;55.092;73.476;2022-09-09T00:07:43;8.35;;;6.07;;
63817;SDS011;53093;55.092;73.476;2022-09-09T00:13:00;9.95;;;5.43;;
63817;SDS011;53093;55.092;73.476;2022-09-09T00:18:03;8.40;;;4.88;;
63817;SDS011;53093;55.092;73.476;2022-09-09T00:20:57;9.77;;;5.07;;
63817;SDS011;53093;55.092;73.476;2022-09-09T00:23:38;7.78;;;4.88;;
63817;SDS011;53093;55.092;73.476;2022-09-09T00:29:00;7.70;;;5.20;;
63817;SDS011;53093;55.092;73.476;2022-09-09T00:31:30;9.68;;;5.25;;
63817;SDS011;53093;55.092;73.476;2022-09-09T00:36:38;7.05;;;5.40;;
63817;SDS011;53093;55.092;73.476;2022-09-09T00:39:27;8.73;;;4.97;;
63817;SDS011;53093;55.092;73.476;2022-09-09T00:44:51;8.32;;;5.10;;
63817;SDS011;53093;55.092;73.476;2022-09-09T00:47:39;9.77;;;5.37;;
63817;SDS011;53093;55.092;73.476;2022-09-09T00:52:58;6.93;;;3.72;;
63817;SDS011;53093;55.092;73.476;2022-09-09T00:55:31;12.00;;;4.53;;
63817;SDS011;53093;55.092;73.476;2022-09-09T00:58:10;6.57;;;4.65;;
63817;SDS011;53093;55.092;73.476;2022-09-09T01:00:49;5.70;;;4.60;;
63817;SDS011;53093;55.092;73.476;2022-09-09T01:03:34;7.95;;;4.30;;
63817;SDS011;53093;55.092;73.476;2022-09-09T01:06:11;8.52;;;4.68;;
63817;SDS011;53093;55.092;73.476;2022-09-09T01:11:25;5.85;;;4.50;;
63817;SDS011;53093;55.092;73.476;2022-09-09T01:16:47;7.03;;;4.40;;
63817;SDS011;53093;55.092;73.476;2022-09-09T01:19:20;8.38;;;4.95;;
63817;SDS011;53093;55.092;73.476;2022-09-09T01:22:00;6.50;;;4.93;;
63817;SDS011;53093;55.092;73.476;2022-09-09T01:24:37;10.05;;;5.55;;
63817;SDS011;53093;55.092;73.476;2022-09-09T01:27:14;10.85;;;6.13;;
63817;SDS011;53093;55.092;73.476;2022-09-09T01:29:42;10.43;;;7.97;;
63817;SDS011;53093;55.092;73.476;2022-09-09T01:34:55;20.23;;;17.02;;
63817;SDS011;53093;55.092;73.476;2022-09-09T01:37:23;40.35;;;34.10;;
63817;SDS011;53093;55.092;73.476;2022-09-09T01:39:49;37.53;;;33.28;;
63817;SDS011;53093;55.092;73.476;2022-09-09T01:42:17;31.35;;;26.42;;
63817;SDS011;53093;55.092;73.476;2022-09-09T01:44:46;21.10;;;17.55;;
63817;SDS011;53093;55.092;73.476;2022-09-09T01:47:14;14.73;;;11.68;;
63817;SDS011;53093;55.092;73.476;2022-09-09T01:49:58;13.50;;;10.07;;
63817;SDS011;53093;55.092;73.476;2022-09-09T01:52:38;12.70;;;8.57;;
63817;SDS011;53093;55.092;73.476;2022-09-09T01:55:09;15.27;;;7.70;;
63817;SDS011;53093;55.092;73.476;2022-09-09T02:00:13;33.97;;;12.63;;
63817;SDS011;53093;55.092;73.476;2022-09-09T02:03:09;26.65;;;13.25;;
63817;SDS011;53093;55.092;73.476;2022-09-09T02:11:12;21.60;;;14.35;;
63817;SDS011;53093;55.092;73.476;2022-09-09T02:13:44;24.90;;;14.45;;
63817;SDS011;53093;55.092;73.476;2022-09-09T02:16:16;24.40;;;14.82;;
63817;SDS011;53093;55.092;73.476;2022-09-09T02:18:48;14.25;;;9.38;;
63817;SDS011;53093;55.092;73.476;2022-09-09T02:21:20;16.33;;;8.48;;
63817;SDS011;53093;55.092;73.476;2022-09-09T02:23:48;16.58;;;9.73;;
63817;SDS011;53093;55.092;73.476;2022-09-09T02:26:18;17.77;;;12.38;;
63817;SDS011;53093;55.092;73.476;2022-09-09T02:28:53;18.67;;;11.40;;
63817;SDS011;53093;55.092;73.476;2022-09-09T02:31:31;16.80;;;10.75;;
63817;SDS011;53093;55.092;73.476;2022-09-09T02:34:03;15.60;;;9.82;;
63817;SDS011;53093;55.092;73.476;2022-09-09T02:36:32;16.50;;;10.88;;
63817;SDS011;53093;55.092;73.476;2022-09-09T02:39:00;14.65;;;10.35;;
63817;SDS011;53093;55.092;73.476;2022-09-09T02:41:33;15.65;;;9.80;;
63817;SDS011;53093;55.092;73.476;2022-09-09T02:44:01;13.75;;;8.57;;
63817;SDS011;53093;55.092;73.476;2022-09-09T02:49:15;9.38;;;7.20;;
63817;SDS011;53093;55.092;73.476;2022-09-09T02:51:54;7.40;;;5.70;;
63817;SDS011;53093;55.092;73.476;2022-09-09T02:56:52;11.68;;;5.38;;
63817;SDS011;53093;55.092;73.476;2022-09-09T02:59:40;9.27;;;4.82;;
63817;SDS011;53093;55.092;73.476;2022-09-09T03:02:09;13.05;;;4.45;;
63817;SDS011;53093;55.092;73.476;2022-09-09T03:04:47;9.10;;;4.50;;
63817;SDS011;53093;55.092;73.476;2022-09-09T03:07:18;9.90;;;4.30;;
63817;SDS011;53093;55.092;73.476;2022-09-09T03:09:45;10.38;;;4.13;;
63817;SDS011;53093;55.092;73.476;2022-09-09T03:12:12;7.47;;;4.00;;
63817;SDS011;53093;55.092;73.476;2022-09-09T03:14:45;9.20;;;4.50;;
63817;SDS011;53093;55.092;73.476;2022-09-09T03:17:23;8.45;;;4.07;;
63817;SDS011;53093;55.092;73.476;2022-09-09T03:19:54;6.13;;;3.88;;
63817;SDS011;53093;55.092;73.476;2022-09-09T03:22:22;11.38;;;3.92;;
63817;SDS011;53093;55.092;73.476;2022-09-09T03:24:50;9.07;;;3.97;;
63817;SDS011;53093;55.092;73.476;2022-09-09T03:27:28;12.00;;;3.80;;
63817;SDS011;53093;55.092;73.476;2022-09-09T03:29:55;9.32;;;3.65;;
63817;SDS011;53093;55.092;73.476;2022-09-09T03:32:34;7.28;;;3.60;;
63817;SDS011;53093;55.092;73.476;2022-09-09T03:35:01;11.43;;;3.40;;
63817;SDS011;53093;55.092;73.476;2022-09-09T03:37:29;10.70;;;3.60;;
63817;SDS011;53093;55.092;73.476;2022-09-09T03:39:56;9.60;;;3.25;;
63817;SDS011;53093;55.092;73.476;2022-09-09T03:42:23;9.38;;;3.00;;
63817;SDS011;53093;55.092;73.476;2022-09-09T03:45:01;11.00;;;3.35;;
63817;SDS011;53093;55.092;73.476;2022-09-09T03:47:29;7.40;;;3.30;;
63817;SDS011;53093;55.092;73.476;2022-09-09T03:50:04;11.23;;;3.10;;
63817;SDS011;53093;55.092;73.476;2022-09-09T03:52:35;5.95;;;2.80;;
63817;SDS011;53093;55.092;73.476;2022-09-09T03:55:03;10.13;;;3.22;;
63817;SDS011;53093;55.092;73.476;2022-09-09T03:57:30;5.72;;;2.38;;
63817;SDS011;53093;55.092;73.476;2022-09-09T03:59:58;5.85;;;1.95;;
63817;SDS011;53093;55.092;73.476;2022-09-09T04:02:42;4.10;;;1.90;;
63817;SDS011;53093;55.092;73.476;2022-09-09T04:05:13;7.28;;;2.33;;
63817;SDS011;53093;55.092;73.476;2022-09-09T04:07:43;4.70;;;1.70;;
63817;SDS011;53093;55.092;73.476;2022-09-09T04:10:10;4.68;;;1.70;;
63817;SDS011;53093;55.092;73.476;2022-09-09T04:12:39;5.00;;;1.60;;
63817;SDS011;53093;55.092;73.476;2022-09-09T04:15:06;3.45;;;1.80;;
63817;SDS011;53093;55.092;73.476;2022-09-09T04:17:35;13.07;;;1.83;;
63817;SDS011;53093;55.092;73.476;2022-09-09T04:20:03;5.07;;;2.10;;
63817;SDS011;53093;55.092;73.476;2022-09-09T04:22:30;3.53;;;1.73;;
63817;SDS011;53093;55.092;73.476;2022-09-09T04:24:59;9.18;;;1.90;;
63817;SDS011;53093;55.092;73.476;2022-09-09T04:27:32;4.90;;;1.75;;
63817;SDS011;53093;55.092;73.476;2022-09-09T04:30:09;4.38;;;2.22;;
63817;SDS011;53093;55.092;73.476;2022-09-09T04:32:37;7.95;;;2.25;;
63817;SDS011;53093;55.092;73.476;2022-09-09T04:35:04;4.40;;;2.35;;
63817;SDS011;53093;55.092;73.476;2022-09-09T04:37:41;5.70;;;2.60;;
63817;SDS011;53093;55.092;73.476;2022-09-09T04:40:09;6.47;;;2.70;;
63817;SDS011;53093;55.092;73.476;2022-09-09T04:42:47;7.10;;;1.92;;
63817;SDS011;53093;55.092;73.476;2022-09-09T04:45:17;15.57;;;1.90;;
63817;SDS011;53093;55.092;73.476;2022-09-09T04:47:46;4.80;;;1.92;;
63817;SDS011;53093;55.092;73.476;2022-09-09T04:50:23;8.23;;;2.03;;
63817;SDS011;53093;55.092;73.476;2022-09-09T04:53:02;10.10;;;1.98;;
63817;SDS011;53093;55.092;73.476;2022-09-09T04:55:30;5.03;;;1.85;;
63817;SDS011;53093;55.092;73.476;2022-09-09T04:57:57;11.63;;;2.10;;
63817;SDS011;53093;55.092;73.476;2022-09-09T05:00:27;11.43;;;2.40;;
63817;SDS011;53093;55.092;73.476;2022-09-09T05:03:05;3.20;;;1.50;;
63817;SDS011;53093;55.092;73.476;2022-09-09T05:05:37;4.60;;;1.60;;
63817;SDS011;53093;55.092;73.476;2022-09-09T05:08:05;4.82;;;1.77;;
63817;SDS011;53093;55.092;73.476;2022-09-09T05:10:32;7.55;;;1.60;;
63817;SDS011;53093;55.092;73.476;2022-09-09T05:13:00;23.52;;;2.55;;
63817;SDS011;53093;55.092;73.476;2022-09-09T05:15:39;4.90;;;1.65;;
63817;SDS011;53093;55.092;73.476;2022-09-09T05:18:09;5.72;;;1.65;;
63817;SDS011;53093;55.092;73.476;2022-09-09T05:20:37;5.75;;;1.48;;
63817;SDS011;53093;55.092;73.476;2022-09-09T05:23:04;2.33;;;1.38;;
63817;SDS011;53093;55.092;73.476;2022-09-09T05:25:33;5.45;;;1.75;;
63817;SDS011;53093;55.092;73.476;2022-09-09T05:28:00;2.88;;;1.40;;
63817;SDS011;53093;55.092;73.476;2022-09-09T05:30:27;4.47;;;1.30;;
63817;SDS011;53093;55.092;73.476;2022-09-09T05:33:04;4.82;;;1.30;;
63817;SDS011;53093;55.092;73.476;2022-09-09T05:35:32;3.67;;;1.23;;
63817;SDS011;53093;55.092;73.476;2022-09-09T05:38:00;2.10;;;0.90;;
63817;SDS011;53093;55.092;73.476;2022-09-09T05:40:27;2.40;;;0.90;;
63817;SDS011;53093;55.092;73.476;2022-09-09T05:42:54;2.55;;;1.08;;
63817;SDS011;53093;55.092;73.476;2022-09-09T05:45:27;2.85;;;1.02;;
63817;SDS011;53093;55.092;73.476;2022-09-09T05:48:03;3.97;;;1.00;;
63817;SDS011;53093;55.092;73.476;2022-09-09T05:50:30;4.82;;;1.10;;
63817;SDS011;53093;55.092;73.476;2022-09-09T05:52:58;4.20;;;1.48;;
63817;SDS011;53093;55.092;73.476;2022-09-09T05:55:30;3.45;;;1.25;;
63817;SDS011;53093;55.092;73.476;2022-09-09T05:57:57;3.40;;;1.20;;
63817;SDS011;53093;55.092;73.476;2022-09-09T06:00:25;1.20;;;0.90;;
63817;SDS011;53093;55.092;73.476;2022-09-09T06:02:53;2.10;;;1.13;;
63817;SDS011;53093;55.092;73.476;2022-09-09T06:05:21;3.35;;;1.10;;
63817;SDS011;53093;55.092;73.476;2022-09-09T06:07:52;2.13;;;1.05;;
63817;SDS011;53093;55.092;73.476;2022-09-09T06:10:19;4.80;;;1.10;;
63817;SDS011;53093;55.092;73.476;2022-09-09T06:12:56;4.22;;;1.08;;
63817;SDS011;53093;55.092;73.476;2022-09-09T06:15:33;3.88;;;1.20;;
63817;SDS011;53093;55.092;73.476;2022-09-09T06:18:00;2.92;;;1.10;;
63817;SDS011;53093;55.092;73.476;2022-09-09T06:20:27;1.98;;;1.10;;
63817;SDS011;53093;55.092;73.476;2022-09-09T06:23:03;3.83;;;1.30;;
63817;SDS011;53093;55.092;73.476;2022-09-09T06:25:31;2.33;;;1.10;;
63817;SDS011;53093;55.092;73.476;2022-09-09T06:28:00;3.15;;;1.25;;
63817;SDS011;53093;55.092;73.476;2022-09-09T06:30:29;3.95;;;1.02;;
63817;SDS011;53093;55.092;73.476;2022-09-09T06:33:07;2.45;;;1.20;;
63817;SDS011;53093;55.092;73.476;2022-09-09T06:35:37;5.55;;;1.55;;
63817;SDS011;53093;55.092;73.476;2022-09-09T06:38:08;2.05;;;1.00;;
63817;SDS011;53093;55.092;73.476;2022-09-09T06:40:55;3.40;;;1.05;;
63817;SDS011;53093;55.092;73.476;2022-09-09T06:43:24;1.67;;;1.00;;
63817;SDS011;53093;55.092;73.476;2022-09-09T06:45:59;2.40;;;1.05;;
63817;SDS011;53093;55.092;73.476;2022-09-09T06:48:35;1.58;;;1.15;;
63817;SDS011;53093;55.092;73.476;2022-09-09T06:51:04;2.85;;;1.25;;
63817;SDS011;53093;55.092;73.476;2022-09-09T06:53:32;3.75;;;1.40;;
63817;SDS011;53093;55.092;73.476;2022-09-09T06:56:22;10.80;;;1.83;;
63817;SDS011;53093;55.092;73.476;2022-09-09T06:58:53;2.25;;;1.38;;
63817;SDS011;53093;55.092;73.476;2022-09-09T07:01:26;2.90;;;1.30;;
63817;SDS011;53093;55.092;73.476;2022-09-09T07:03:56;2.55;;;1.10;;
63817;SDS011;53093;55.092;73.476;2022-09-09T07:06:27;4.07;;;1.50;;
63817;SDS011;53093;55.092;73.476;2022-09-09T07:08:55;5.13;;;1.10;;
63817;SDS011;53093;55.092;73.476;2022-09-09T07:11:27;2.20;;;1.15;;
63817;SDS011;53093;55.092;73.476;2022-09-09T07:14:05;1.65;;;1.20;;
63817;SDS011;53093;55.092;73.476;2022-09-09T07:16:32;2.42;;;1.20;;
63817;SDS011;53093;55.092;73.476;2022-09-09T07:19:02;3.10;;;1.33;;
63817;SDS011;53093;55.092;73.476;2022-09-09T07:21:35;5.10;;;1.20;;
63817;SDS011;53093;55.092;73.476;2022-09-09T07:24:12;4.25;;;1.40;;
63817;SDS011;53093;55.092;73.476;2022-09-09T07:26:41;5.38;;;1.30;;
63817;SDS011;53093;55.092;73.476;2022-09-09T07:29:17;2.25;;;1.15;;
63817;SDS011;53093;55.092;73.476;2022-09-09T07:31:55;4.10;;;1.10;;
63817;SDS011;53093;55.092;73.476;2022-09-09T07:34:29;2.67;;;1.30;;
63817;SDS011;53093;55.092;73.476;2022-09-09T07:36:56;4.85;;;1.30;;
63817;SDS011;53093;55.092;73.476;2022-09-09T07:39:24;2.38;;;1.15;;
63817;SDS011;53093;55.092;73.476;2022-09-09T07:41:53;1.95;;;1.38;;
63817;SDS011;53093;55.092;73.476;2022-09-09T07:44:24;5.03;;;1.30;;
63817;SDS011;53093;55.092;73.476;2022-09-09T07:47:02;5.65;;;1.40;;
63817;SDS011;53093;55.092;73.476;2022-09-09T07:49:35;1.35;;;1.17;;
63817;SDS011;53093;55.092;73.476;2022-09-09T07:52:04;6.75;;;1.30;;
63817;SDS011;53093;55.092;73.476;2022-09-09T07:54:41;2.00;;;0.85;;
63817;SDS011;53093;55.092;73.476;2022-09-09T07:57:18;3.80;;;1.20;;
63817;SDS011;53093;55.092;73.476;2022-09-09T07:59:45;5.57;;;1.10;;
63817;SDS011;53093;55.092;73.476;2022-09-09T08:02:13;2.05;;;1.02;;
63817;SDS011;53093;55.092;73.476;2022-09-09T08:04:41;4.10;;;1.00;;
63817;SDS011;53093;55.092;73.476;2022-09-09T08:07:08;2.10;;;1.10;;
63817;SDS011;53093;55.092;73.476;2022-09-09T08:09:42;2.28;;;1.10;;
63817;SDS011;53093;55.092;73.476;2022-09-09T08:12:19;6.03;;;1.05;;
63817;SDS011;53093;55.092;73.476;2022-09-09T08:14:46;2.85;;;1.00;;
63817;SDS011;53093;55.092;73.476;2022-09-09T08:17:13;3.85;;;1.00;;
63817;SDS011;53093;55.092;73.476;2022-09-09T08:22:20;3.38;;;1.20;;
63817;SDS011;53093;55.092;73.476;2022-09-09T08:24:49;5.63;;;1.40;;
63817;SDS011;53093;55.092;73.476;2022-09-09T08:27:24;5.82;;;1.10;;
63817;SDS011;53093;55.092;73.476;2022-09-09T08:29:53;4.25;;;1.00;;
63817;SDS011;53093;55.092;73.476;2022-09-09T08:32:20;5.45;;;1.40;;
63817;SDS011;53093;55.092;73.476;2022-09-09T08:34:47;2.90;;;1.20;;
63817;SDS011;53093;55.092;73.476;2022-09-09T08:37:24;3.58;;;1.10;;
63817;SDS011;53093;55.092;73.476;2022-09-09T08:39:51;3.10;;;1.38;;
63817;SDS011;53093;55.092;73.476;2022-09-09T08:52:42;3.90;;;1.20;;
63817;SDS011;53093;55.092;73.476;2022-09-09T08:55:24;2.05;;;1.20;;
63817;SDS011;53093;55.092;73.476;2022-09-09T08:57:55;4.68;;;1.40;;
63817;SDS011;53093;55.092;73.476;2022-09-09T09:00:27;6.47;;;1.77;;
63817;SDS011;53093;55.092;73.476;2022-09-09T09:03:07;4.18;;;1.40;;
63817;SDS011;53093;55.092;73.476;2022-09-09T09:08:26;4.88;;;1.30;;
63817;SDS011;53093;55.092;73.476;2022-09-09T09:10:56;3.88;;;1.30;;
63817;SDS011;53093;55.092;73.476;2022-09-09T09:19:01;5.70;;;1.60;;
63817;SDS011;53093;55.092;73.476;2022-09-09T09:24:42;7.75;;;1.58;;
63817;SDS011;53093;55.092;73.476;2022-09-09T09:27:20;5.43;;;1.65;;
63817;SDS011;53093;55.092;73.476;2022-09-09T09:29:58;12.23;;;1.67;;
63817;SDS011;53093;55.092;73.476;2022-09-09T09:32:28;6.95;;;2.00;;
63817;SDS011;53093;55.092;73.476;2022-09-09T09:34:57;6.93;;;1.98;;
63817;SDS011;53093;55.092;73.476;2022-09-09T09:37:31;7.88;;;2.42;;
63817;SDS011;53093;55.092;73.476;2022-09-09T09:40:19;4.85;;;2.10;;
63817;SDS011;53093;55.092;73.476;2022-09-09T09:42:49;5.85;;;2.25;;
63817;SDS011;53093;55.092;73.476;2022-09-09T09:45:42;5.97;;;1.90;;
63817;SDS011;53093;55.092;73.476;2022-09-09T09:48:12;5.45;;;2.00;;
63817;SDS011;53093;55.092;73.476;2022-09-09T09:51:00;5.97;;;3.10;;
63817;SDS011;53093;55.092;73.476;2022-09-09T09:53:34;6.00;;;2.70;;
63817;SDS011;53093;55.092;73.476;2022-09-09T09:56:02;6.55;;;3.53;;
63817;SDS011;53093;55.092;73.476;2022-09-09T09:58:38;7.43;;;2.50;;
63817;SDS011;53093;55.092;73.476;2022-09-09T10:01:20;4.55;;;2.30;;
63817;SDS011;53093;55.092;73.476;2022-09-09T10:03:58;4.85;;;2.38;;
63817;SDS011;53093;55.092;73.476;2022-09-09T10:06:30;6.13;;;2.80;;
63817;SDS011;53093;55.092;73.476;2022-09-09T10:08:57;7.88;;;4.47;;
63817;SDS011;53093;55.092;73.476;2022-09-09T10:11:27;10.00;;;7.30;;
63817;SDS011;53093;55.092;73.476;2022-09-09T10:26:55;11.38;;;6.57;;
63817;SDS011;53093;55.092;73.476;2022-09-09T10:29:44;7.10;;;2.85;;
63817;SDS011;53093;55.092;73.476;2022-09-09T10:43:09;40.42;;;22.08;;
63817;SDS011;53093;55.092;73.476;2022-09-09T10:53:28;13.48;;;5.88;;
63817;SDS011;53093;55.092;73.476;2022-09-09T10:56:11;5.68;;;3.45;;
63817;SDS011;53093;55.092;73.476;2022-09-09T11:01:41;13.50;;;5.60;;
63817;SDS011;53093;55.092;73.476;2022-09-09T11:04:05;11.40;;;4.28;;
63817;SDS011;53093;55.092;73.476;2022-09-09T11:06:41;14.55;;;9.63;;
63817;SDS011;53093;55.092;73.476;2022-09-09T11:09:16;28.10;;;19.40;;
63817;SDS011;53093;55.092;73.476;2022-09-09T11:11:49;15.17;;;9.83;;
63817;SDS011;53093;55.092;73.476;2022-09-09T11:14:34;9.65;;;6.10;;
63817;SDS011;53093;55.092;73.476;2022-09-09T11:17:13;8.25;;;3.40;;
63817;SDS011;53093;55.092;73.476;2022-09-09T11:19:43;9.23;;;3.22;;
63817;SDS011;53093;55.092;73.476;2022-09-09T11:24:54;11.38;;;7.75;;
63817;SDS011;53093;55.092;73.476;2022-09-09T11:27:29;21.77;;;14.82;;
63817;SDS011;53093;55.092;73.476;2022-09-09T11:32:51;6.82;;;2.90;;
63817;SDS011;53093;55.092;73.476;2022-09-09T11:38:13;20.00;;;15.97;;
63817;SDS011;53093;55.092;73.476;2022-09-09T11:40:42;15.68;;;11.75;;
63817;SDS011;53093;55.092;73.476;2022-09-09T11:46:09;12.13;;;8.65;;
63817;SDS011;53093;55.092;73.476;2022-09-09T11:48:42;39.00;;;28.88;;
63817;SDS011;53093;55.092;73.476;2022-09-09T11:53:48;8.15;;;5.10;;
63817;SDS011;53093;55.092;73.476;2022-09-09T11:56:26;6.70;;;4.18;;
63817;SDS011;53093;55.092;73.476;2022-09-09T11:58:59;4.75;;;3.15;;
63817;SDS011;53093;55.092;73.476;2022-09-09T12:01:38;12.07;;;6.55;;
63817;SDS011;53093;55.092;73.476;2022-09-09T12:06:45;6.57;;;2.58;;
63817;SDS011;53093;55.092;73.476;2022-09-09T12:09:28;8.98;;;2.55;;
63817;SDS011;53093;55.092;73.476;2022-09-09T12:12:06;4.30;;;2.17;;
63817;SDS011;53093;55.092;73.476;2022-09-09T12:14:37;6.38;;;2.40;;
63817;SDS011;53093;55.092;73.476;2022-09-09T12:19:41;11.30;;;3.00;;
63817;SDS011;53093;55.092;73.476;2022-09-09T12:22:57;12.82;;;6.63;;
63817;SDS011;53093;55.092;73.476;2022-09-09T12:25:04;14.45;;;8.50;;
63817;SDS011;53093;55.092;73.476;2022-09-09T12:27:36;16.33;;;8.77;;
63817;SDS011;53093;55.092;73.476;2022-09-09T12:32:34;21.33;;;10.32;;
63817;SDS011;53093;55.092;73.476;2022-09-09T12:35:20;20.88;;;10.25;;
63817;SDS011;53093;55.092;73.476;2022-09-09T12:37:55;21.85;;;9.98;;
63817;SDS011;53093;55.092;73.476;2022-09-09T12:40:27;15.65;;;8.38;;
63817;SDS011;53093;55.092;73.476;2022-09-09T12:42:54;18.90;;;8.30;;
63817;SDS011;53093;55.092;73.476;2022-09-09T12:45:27;16.92;;;8.93;;
63817;SDS011;53093;55.092;73.476;2022-09-09T12:48:03;16.80;;;9.10;;
63817;SDS011;53093;55.092;73.476;2022-09-09T12:50:35;15.18;;;9.35;;
63817;SDS011;53093;55.092;73.476;2022-09-09T12:53:36;14.50;;;8.55;;
63817;SDS011;53093;55.092;73.476;2022-09-09T12:55:58;19.25;;;9.10;;
63817;SDS011;53093;55.092;73.476;2022-09-09T12:58:25;18.00;;;8.82;;
63817;SDS011;53093;55.092;73.476;2022-09-09T13:00:55;22.67;;;10.38;;
63817;SDS011;53093;55.092;73.476;2022-09-09T13:03:22;26.33;;;9.13;;
63817;SDS011;53093;55.092;73.476;2022-09-09T13:05:50;21.00;;;8.60;;
63817;SDS011;53093;55.092;73.476;2022-09-09T13:08:17;22.08;;;8.18;;
63817;SDS011;53093;55.092;73.476;2022-09-09T13:10:51;26.90;;;7.75;;
63817;SDS011;53093;55.092;73.476;2022-09-09T13:15:57;31.60;;;7.53;;
63817;SDS011;53093;55.092;73.476;2022-09-09T13:18:25;24.00;;;7.05;;
63817;SDS011;53093;55.092;73.476;2022-09-09T13:20:53;29.17;;;7.20;;
63817;SDS011;53093;55.092;73.476;2022-09-09T13:23:20;18.20;;;6.53;;
63817;SDS011;53093;55.092;73.476;2022-09-09T13:25:59;18.38;;;6.50;;
63817;SDS011;53093;55.092;73.476;2022-09-09T13:28:31;24.73;;;6.10;;
63817;SDS011;53093;55.092;73.476;2022-09-09T13:33:30;27.15;;;5.45;;
63817;SDS011;53093;55.092;73.476;2022-09-09T13:36:04;22.50;;;4.70;;
63817;SDS011;53093;55.092;73.476;2022-09-09T13:38:33;11.50;;;4.00;;
63817;SDS011;53093;55.092;73.476;2022-09-09T13:41:11;23.23;;;4.60;;
63817;SDS011;53093;55.092;73.476;2022-09-09T13:43:53;26.58;;;3.75;;
63817;SDS011;53093;55.092;73.476;2022-09-09T13:54:04;11.52;;;3.17;;
63817;SDS011;53093;55.092;73.476;2022-09-09T13:56:36;12.98;;;3.22;;
63817;SDS011;53093;55.092;73.476;2022-09-09T13:59:09;12.07;;;3.50;;
63817;SDS011;53093;55.092;73.476;2022-09-09T14:01:47;11.95;;;3.58;;
63817;SDS011;53093;55.092;73.476;2022-09-09T14:04:25;16.25;;;3.40;;
63817;SDS011;53093;55.092;73.476;2022-09-09T14:06:52;12.75;;;3.40;;
63817;SDS011;53093;55.092;73.476;2022-09-09T14:09:19;13.60;;;3.10;;
63817;SDS011;53093;55.092;73.476;2022-09-09T14:11:46;16.25;;;3.30;;
63817;SDS011;53093;55.092;73.476;2022-09-09T14:14:14;10.68;;;3.20;;
63817;SDS011;53093;55.092;73.476;2022-09-09T14:16:51;14.25;;;2.97;;
63817;SDS011;53093;55.092;73.476;2022-09-09T14:19:24;13.65;;;2.97;;
63817;SDS011;53093;55.092;73.476;2022-09-09T14:21:50;17.80;;;3.13;;
63817;SDS011;53093;55.092;73.476;2022-09-09T14:24:27;54.95;;;5.78;;
63817;SDS011;53093;55.092;73.476;2022-09-09T14:26:54;21.50;;;3.70;;
63817;SDS011;53093;55.092;73.476;2022-09-09T14:29:21;17.10;;;3.45;;
63817;SDS011;53093;55.092;73.476;2022-09-09T14:31:48;17.42;;;3.40;;
63817;SDS011;53093;55.092;73.476;2022-09-09T14:34:15;18.65;;;3.72;;
63817;SDS011;53093;55.092;73.476;2022-09-09T14:36:42;12.75;;;3.90;;
63817;SDS011;53093;55.092;73.476;2022-09-09T14:39:11;16.83;;;4.63;;
63817;SDS011;53093;55.092;73.476;2022-09-09T14:41:43;16.77;;;5.38;;
63817;SDS011;53093;55.092;73.476;2022-09-09T14:44:10;16.70;;;5.30;;
63817;SDS011;53093;55.092;73.476;2022-09-09T14:46:37;22.98;;;6.75;;
63817;SDS011;53093;55.092;73.476;2022-09-09T14:49:04;41.45;;;9.70;;
63817;SDS011;53093;55.092;73.476;2022-09-09T14:51:41;77.68;;;13.05;;
63817;SDS011;53093;55.092;73.476;2022-09-09T14:54:08;60.88;;;12.98;;
63817;SDS011;53093;55.092;73.476;2022-09-09T14:56:35;64.10;;;13.82;;
63817;SDS011;53093;55.092;73.476;2022-09-09T14:59:02;52.58;;;13.27;;
63817;SDS011;53093;55.092;73.476;2022-09-09T15:01:30;79.22;;;14.20;;
63817;SDS011;53093;55.092;73.476;2022-09-09T15:03:59;74.60;;;14.30;;
63817;SDS011;53093;55.092;73.476;2022-09-09T15:06:27;54.65;;;12.25;;
63817;SDS011;53093;55.092;73.476;2022-09-09T15:09:06;51.45;;;12.15;;
63817;SDS011;53093;55.092;73.476;2022-09-09T15:11:43;56.35;;;10.82;;
63817;SDS011;53093;55.092;73.476;2022-09-09T15:14:10;55.95;;;11.35;;
63817;SDS011;53093;55.092;73.476;2022-09-09T15:16:39;42.85;;;10.35;;
63817;SDS011;53093;55.092;73.476;2022-09-09T15:19:06;49.55;;;8.93;;
63817;SDS011;53093;55.092;73.476;2022-09-09T15:21:34;42.03;;;8.70;;
63817;SDS011;53093;55.092;73.476;2022-09-09T15:24:02;40.45;;;9.27;;
63817;SDS011;53093;55.092;73.476;2022-09-09T15:26:39;31.70;;;8.25;;
63817;SDS011;53093;55.092;73.476;2022-09-09T15:29:07;29.58;;;8.40;;
63817;SDS011;53093;55.092;73.476;2022-09-09T15:31:35;54.50;;;15.43;;
63817;SDS011;53093;55.092;73.476;2022-09-09T15:34:03;38.00;;;11.15;;
63817;SDS011;53093;55.092;73.476;2022-09-09T15:36:39;52.33;;;14.38;;
63817;SDS011;53093;55.092;73.476;2022-09-09T15:39:07;55.30;;;14.40;;
63817;SDS011;53093;55.092;73.476;2022-09-09T15:41:46;62.33;;;15.82;;
63817;SDS011;53093;55.092;73.476;2022-09-09T15:44:23;50.70;;;14.85;;
63817;SDS011;53093;55.092;73.476;2022-09-09T15:46:52;44.58;;;15.85;;
63817;SDS011;53093;55.092;73.476;2022-09-09T15:49:33;54.85;;;14.52;;
63817;SDS011;53093;55.092;73.476;2022-09-09T15:52:00;50.28;;;14.80;;
63817;SDS011;53093;55.092;73.476;2022-09-09T15:54:32;39.38;;;15.18;;
63817;SDS011;53093;55.092;73.476;2022-09-09T15:57:00;52.03;;;14.90;;
63817;SDS011;53093;55.092;73.476;2022-09-09T15:59:36;43.28;;;14.68;;
63817;SDS011;53093;55.092;73.476;2022-09-09T16:02:03;53.97;;;14.35;;
63817;SDS011;53093;55.092;73.476;2022-09-09T16:04:41;41.63;;;13.38;;
63817;SDS011;53093;55.092;73.476;2022-09-09T16:07:13;39.72;;;12.50;;
63817;SDS011;53093;55.092;73.476;2022-09-09T16:09:40;39.97;;;14.27;;
63817;SDS011;53093;55.092;73.476;2022-09-09T16:12:10;36.28;;;13.05;;
63817;SDS011;53093;55.092;73.476;2022-09-09T16:17:23;37.83;;;12.60;;
63817;SDS011;53093;55.092;73.476;2022-09-09T16:19:49;32.08;;;12.93;;
63817;SDS011;53093;55.092;73.476;2022-09-09T16:22:16;43.03;;;12.80;;
63817;SDS011;53093;55.092;73.476;2022-09-09T16:24:44;43.25;;;14.38;;
63817;SDS011;53093;55.092;73.476;2022-09-09T16:27:16;45.10;;;14.57;;
63817;SDS011;53093;55.092;73.476;2022-09-09T16:29:43;38.22;;;15.52;;
63817;SDS011;53093;55.092;73.476;2022-09-09T16:32:15;41.92;;;13.32;;
63817;SDS011;53093;55.092;73.476;2022-09-09T16:34:42;35.58;;;13.80;;
63817;SDS011;53093;55.092;73.476;2022-09-09T16:37:09;36.67;;;15.07;;
63817;SDS011;53093;55.092;73.476;2022-09-09T16:39:37;40.17;;;15.40;;
63817;SDS011;53093;55.092;73.476;2022-09-09T16:42:12;43.35;;;19.02;;
63817;SDS011;53093;55.092;73.476;2022-09-09T16:44:49;53.42;;;20.90;;
63817;SDS011;53093;55.092;73.476;2022-09-09T16:47:16;53.47;;;20.88;;
63817;SDS011;53093;55.092;73.476;2022-09-09T16:49:44;48.13;;;21.45;;
63817;SDS011;53093;55.092;73.476;2022-09-09T16:52:11;49.05;;;20.73;;
63817;SDS011;53093;55.092;73.476;2022-09-09T16:54:38;43.65;;;20.05;;
63817;SDS011;53093;55.092;73.476;2022-09-09T16:57:04;49.08;;;19.10;;
63817;SDS011;53093;55.092;73.476;2022-09-09T16:59:33;38.50;;;18.40;;
63817;SDS011;53093;55.092;73.476;2022-09-09T17:02:08;42.05;;;17.23;;
63817;SDS011;53093;55.092;73.476;2022-09-09T17:04:35;31.52;;;16.65;;
63817;SDS011;53093;55.092;73.476;2022-09-09T17:07:02;35.88;;;16.80;;
63817;SDS011;53093;55.092;73.476;2022-09-09T17:09:29;44.35;;;17.42;;